createdAt,value
2022-10-11T00:00:53.684Z,16.50
2022-10-11T00:03:33.867Z,16.50
2022-10-11T00:06:03.827Z,16.51
2022-10-11T00:08:33.477Z,16.49
2022-10-11T00:11:05.038Z,16.49
2022-10-11T00:13:33.272Z,16.47
2022-10-11T00:16:01.210Z,16.45
2022-10-11T00:18:28.914Z,16.45
2022-10-11T00:21:06.511Z,16.47
2022-10-11T00:23:34.505Z,16.44
2022-10-11T00:26:06.687Z,16.44
2022-10-11T00:28:35.351Z,16.43
2022-10-11T00:31:07.611Z,16.43
2022-10-11T00:33:35.706Z,16.43
2022-10-11T00:36:04.331Z,16.44
2022-10-11T00:38:32.247Z,16.44
2022-10-11T00:41:00.555Z,16.43
2022-10-11T00:43:30.844Z,16.40
2022-10-11T00:45:58.247Z,16.39
2022-10-11T00:48:33.762Z,16.38
2022-10-11T00:51:06.428Z,16.35
2022-10-11T00:53:34.580Z,16.32
2022-10-11T00:56:20.677Z,16.29
2022-10-11T00:58:48.634Z,16.26
2022-10-11T01:01:16.558Z,16.24
2022-10-11T01:03:44.956Z,16.21
2022-10-11T01:06:12.687Z,16.20
2022-10-11T01:08:40.792Z,16.17
2022-10-11T01:11:17.530Z,16.16
2022-10-11T01:14:23.099Z,16.15
2022-10-11T01:16:57.859Z,16.12
2022-10-11T01:19:34.363Z,16.11
2022-10-11T01:22:42.849Z,16.11
2022-10-11T01:25:43.860Z,16.09
2022-10-11T01:28:37.218Z,16.08
2022-10-11T01:31:28.091Z,16.06
2022-10-11T01:34:32.469Z,16.08
2022-10-11T01:37:13.930Z,16.06
2022-10-11T01:39:51.828Z,16.06
2022-10-11T01:42:20.894Z,16.07
2022-10-11T01:44:49.961Z,16.07
2022-10-11T01:47:25.213Z,16.07
2022-10-11T01:50:02.157Z,16.06
2022-10-11T01:52:34.144Z,16.04
2022-10-11T01:55:28.291Z,16.05
2022-10-11T01:58:21.056Z,16.04
2022-10-11T02:01:06.798Z,16.03
2022-10-11T02:03:54.200Z,16.03
2022-10-11T02:06:56.978Z,16.02
2022-10-11T02:09:42.863Z,16.00
2022-10-11T02:12:16.441Z,16.00
2022-10-11T02:14:49.511Z,15.99
2022-10-11T02:17:24.416Z,16.01
2022-10-11T02:19:56.821Z,15.99
2022-10-11T02:22:35.717Z,15.99
2022-10-11T02:25:09.501Z,15.99
2022-10-11T02:27:41.144Z,15.98
2022-10-11T02:30:10.193Z,15.99
2022-10-11T02:32:41.821Z,15.97
2022-10-11T02:35:11.814Z,15.96
2022-10-11T02:38:02.943Z,15.93
2022-10-11T02:40:40.734Z,15.92
2022-10-11T02:43:19.593Z,15.90
2022-10-11T02:46:01.566Z,15.90
2022-10-11T02:48:30.830Z,15.88
2022-10-11T02:50:59.450Z,15.87
2022-10-11T02:53:27.296Z,15.87
2022-10-11T02:55:56.146Z,15.85
2022-10-11T02:58:24.748Z,15.84
2022-10-11T03:00:52.402Z,15.81
2022-10-11T03:03:20.232Z,15.81
2022-10-11T03:05:48.144Z,15.81
2022-10-11T03:08:17.686Z,15.79
2022-10-11T03:10:45.547Z,15.77
2022-10-11T03:13:17.859Z,15.76
2022-10-11T03:16:02.942Z,15.75
2022-10-11T03:18:34.789Z,15.72
2022-10-11T03:21:02.559Z,15.70
2022-10-11T03:23:30.137Z,15.70
2022-10-11T03:25:57.780Z,15.69
2022-10-11T03:28:25.552Z,15.69
2022-10-11T03:30:53.200Z,15.71
2022-10-11T03:33:20.837Z,15.72
2022-10-11T03:35:49.703Z,15.75
2022-10-11T03:38:22.081Z,15.76
2022-10-11T03:40:50.160Z,15.78
2022-10-11T03:43:17.794Z,15.78
2022-10-11T03:45:45.323Z,15.77
2022-10-11T03:48:13.154Z,15.77
2022-10-11T03:50:40.861Z,15.76
2022-10-11T03:53:08.935Z,15.75
2022-10-11T03:55:40.345Z,15.78
2022-10-11T03:58:09.097Z,15.78
2022-10-11T04:00:37.175Z,15.77
2022-10-11T04:03:05.025Z,15.79
2022-10-11T04:05:32.490Z,15.79
2022-10-11T04:08:00.158Z,15.78
2022-10-11T04:10:28.183Z,15.80
2022-10-11T04:12:55.800Z,15.79
2022-10-11T04:15:23.607Z,15.79
2022-10-11T04:17:51.278Z,15.80
2022-10-11T04:20:18.982Z,15.81
2022-10-11T04:22:46.465Z,15.83
2022-10-11T04:25:14.565Z,15.83
2022-10-11T04:27:42.715Z,15.84
2022-10-11T04:30:11.630Z,15.84
2022-10-11T04:32:58.062Z,15.84
2022-10-11T04:35:25.574Z,15.84
2022-10-11T04:37:53.155Z,15.83
2022-10-11T04:40:20.901Z,15.83
2022-10-11T04:42:50.645Z,15.84
2022-10-11T04:45:18.388Z,15.83
2022-10-11T04:47:46.420Z,15.82
2022-10-11T04:50:13.991Z,15.86
2022-10-11T04:52:41.537Z,15.85
2022-10-11T04:55:10.675Z,15.85
2022-10-11T04:57:38.245Z,15.87
2022-10-11T05:00:07.213Z,15.88
2022-10-11T05:02:35.338Z,15.87
2022-10-11T05:05:02.887Z,15.88
2022-10-11T05:07:30.379Z,15.89
2022-10-11T05:09:58.206Z,15.89
2022-10-11T05:12:25.805Z,15.91
2022-10-11T05:14:53.894Z,15.93
2022-10-11T05:17:22.054Z,15.95
2022-10-11T05:19:49.584Z,15.97
2022-10-11T05:22:17.059Z,16.00
2022-10-11T05:24:44.816Z,16.02
2022-10-11T05:27:12.247Z,16.05
2022-10-11T05:29:39.755Z,16.08
2022-10-11T05:32:07.720Z,16.12
2022-10-11T05:34:35.271Z,16.16
2022-10-11T05:37:03.147Z,16.17
2022-10-11T05:39:30.912Z,16.19
2022-10-11T05:41:58.427Z,16.23
2022-10-11T05:44:26.306Z,16.29
2022-10-11T05:46:53.734Z,16.38
2022-10-11T05:49:21.345Z,16.45
2022-10-11T05:51:49.038Z,16.54
2022-10-11T05:54:16.534Z,16.59
2022-10-11T05:56:44.123Z,16.64
2022-10-11T05:59:11.886Z,16.70
2022-10-11T06:01:39.658Z,16.72
2022-10-11T06:04:08.316Z,16.77
2022-10-11T06:06:36.040Z,16.80
2022-10-11T06:09:03.758Z,16.88
2022-10-11T06:11:31.239Z,16.94
2022-10-11T06:13:59.261Z,17.00
2022-10-11T06:16:27.641Z,17.05
2022-10-11T06:18:56.805Z,17.06
2022-10-11T06:21:24.665Z,17.06
2022-10-11T06:23:58.242Z,17.02
2022-10-11T06:26:28.547Z,17.01
2022-10-11T06:28:56.501Z,16.99
2022-10-11T06:31:24.741Z,16.97
2022-10-11T06:33:52.263Z,16.97
2022-10-11T06:36:19.823Z,16.95
2022-10-11T06:38:47.715Z,16.95
2022-10-11T06:41:22.390Z,16.96
2022-10-11T06:43:50.954Z,16.99
2022-10-11T06:46:20.633Z,17.04
2022-10-11T06:48:49.137Z,17.08
2022-10-11T06:51:20.279Z,17.15
2022-10-11T06:53:56.449Z,17.20
2022-10-11T06:56:26.639Z,17.24
2022-10-11T06:58:56.309Z,17.29
2022-10-11T07:01:24.667Z,17.33
2022-10-11T07:03:55.423Z,17.36
2022-10-11T07:06:26.968Z,17.37
2022-10-11T07:08:55.623Z,17.38
2022-10-11T07:11:26.557Z,17.39
2022-10-11T07:14:00.620Z,17.38
2022-10-11T07:16:29.115Z,17.38
2022-10-11T07:19:01.228Z,17.39
2022-10-11T07:21:31.958Z,17.42
2022-10-11T07:24:00.395Z,17.45
2022-10-11T07:26:32.421Z,17.47
2022-10-11T07:29:01.815Z,17.50
2022-10-11T07:31:29.455Z,17.51
2022-10-11T07:33:57.069Z,17.55
2022-10-11T07:36:26.502Z,17.57
2022-10-11T07:38:54.058Z,17.63
2022-10-11T07:41:22.180Z,17.62
2022-10-11T07:43:51.110Z,17.65
2022-10-11T07:46:19.100Z,17.69
2022-10-11T07:48:46.803Z,17.72
2022-10-11T07:51:21.860Z,17.78
2022-10-11T07:53:55.856Z,17.82
2022-10-11T07:56:29.221Z,17.85
2022-10-11T07:59:00.611Z,17.87
2022-10-11T08:01:29.121Z,17.90
2022-10-11T08:03:57.513Z,17.95
2022-10-11T08:06:30.249Z,18.00
2022-10-11T08:09:00.654Z,18.03
2022-10-11T08:11:46.576Z,18.08
2022-10-11T08:14:14.458Z,18.09
2022-10-11T08:16:41.987Z,18.12
2022-10-11T08:19:10.824Z,18.17
2022-10-11T08:21:38.666Z,18.17
2022-10-11T08:24:07.065Z,18.18
2022-10-11T08:26:35.674Z,18.19
2022-10-11T08:29:05.403Z,18.21
2022-10-11T08:31:35.222Z,18.21
2022-10-11T08:34:02.888Z,18.26
2022-10-11T08:36:30.665Z,18.25
2022-10-11T08:38:58.902Z,18.28
2022-10-11T08:41:39.384Z,18.33
2022-10-11T08:45:08.998Z,18.16
2022-10-11T08:47:36.461Z,17.80
2022-10-11T08:50:19.843Z,17.55
2022-10-11T08:53:04.753Z,17.39
2022-10-11T08:55:40.407Z,17.30
2022-10-11T08:58:15.071Z,17.30
2022-10-11T09:00:46.261Z,17.31
2022-10-11T09:03:25.507Z,17.35
2022-10-11T09:06:16.315Z,17.44
2022-10-11T09:09:43.205Z,17.60
2022-10-11T09:12:32.382Z,17.66
2022-10-11T09:15:42.364Z,17.70
2022-10-11T09:18:19.467Z,17.76
2022-10-11T09:20:58.804Z,17.79
2022-10-11T09:23:35.428Z,17.88
2022-10-11T09:26:11.173Z,17.93
2022-10-11T09:29:01.435Z,17.92
2022-10-11T09:31:30.208Z,17.89
2022-10-11T09:34:06.331Z,17.99
2022-10-11T09:36:57.112Z,17.99
2022-10-11T09:39:38.973Z,17.98
2022-10-11T09:42:12.173Z,17.93
2022-10-11T09:44:51.854Z,17.98
2022-10-11T09:47:25.135Z,17.97
2022-10-11T09:50:13.876Z,17.97
2022-10-11T09:52:58.101Z,17.98
2022-10-11T09:55:33.936Z,18.02
2022-10-11T09:58:02.266Z,18.01
2022-10-11T10:00:33.893Z,18.02
2022-10-11T10:03:04.680Z,18.08
2022-10-11T10:05:36.918Z,18.07
2022-10-11T10:08:09.788Z,18.09
2022-10-11T10:10:55.856Z,18.16
2022-10-11T10:13:56.798Z,18.19
2022-10-11T10:16:34.805Z,18.14
2022-10-11T10:19:24.123Z,18.09
2022-10-11T10:21:55.461Z,18.09
2022-10-11T10:24:40.512Z,18.08
2022-10-11T10:27:14.281Z,18.04
2022-10-11T10:29:42.161Z,18.04
2022-10-11T10:32:22.538Z,18.05
2022-10-11T10:35:07.518Z,17.99
2022-10-11T10:37:59.536Z,17.93
2022-10-11T10:41:17.875Z,17.88
2022-10-11T10:43:54.244Z,17.88
2022-10-11T10:46:40.227Z,17.89
2022-10-11T10:49:48.919Z,17.86
2022-10-11T10:52:50.632Z,17.82
2022-10-11T10:55:44.557Z,17.83
2022-10-11T10:58:56.523Z,17.87
2022-10-11T11:01:29.431Z,18.03
2022-10-11T11:03:59.726Z,18.00
2022-10-11T11:06:54.118Z,17.95
2022-10-11T11:10:07.132Z,17.93
2022-10-11T11:12:55.566Z,17.90
2022-10-11T11:15:48.422Z,17.87
2022-10-11T11:18:37.092Z,17.90
2022-10-11T11:21:48.180Z,17.92
2022-10-11T11:24:58.393Z,17.93
2022-10-11T11:27:51.033Z,17.90
2022-10-11T11:30:45.144Z,17.88
2022-10-11T11:33:49.150Z,17.82
2022-10-11T11:36:43.394Z,17.86
2022-10-11T11:39:36.797Z,17.87
2022-10-11T11:42:31.809Z,18.08
2022-10-11T11:45:23.686Z,18.06
2022-10-11T11:48:11.785Z,17.99
2022-10-11T11:50:47.094Z,17.95
2022-10-11T11:53:25.146Z,17.89
2022-10-11T11:56:07.350Z,17.90
2022-10-11T11:59:23.486Z,17.94
2022-10-11T12:02:23.699Z,17.92
2022-10-11T12:04:52.408Z,17.91
2022-10-11T12:07:23.796Z,17.99
2022-10-11T12:10:18.573Z,18.09
2022-10-11T12:12:46.303Z,18.18
2022-10-11T12:15:26.205Z,18.24
2022-10-11T12:17:53.705Z,18.10
2022-10-11T12:20:29.987Z,18.07
2022-10-11T12:23:05.777Z,18.08
2022-10-11T12:25:44.674Z,18.05
2022-10-11T12:28:43.035Z,18.05
2022-10-11T12:31:26.726Z,18.11
2022-10-11T12:37:20.337Z,18.10
2022-10-11T12:39:57.764Z,18.19
2022-10-11T12:42:36.947Z,18.19
2022-10-11T12:45:14.062Z,18.12
2022-10-11T12:48:04.068Z,18.07
2022-10-11T12:50:37.309Z,18.07
2022-10-11T12:54:08.221Z,18.10
2022-10-11T12:57:17.677Z,18.07
2022-10-11T12:59:49.316Z,18.21
2022-10-11T13:02:36.370Z,18.14
2022-10-11T13:05:26.639Z,18.08
2022-10-11T13:07:58.751Z,18.08
2022-10-11T13:10:53.939Z,18.07
2022-10-11T13:13:32.129Z,18.17
2022-10-11T13:16:21.474Z,18.29
2022-10-11T13:18:50.828Z,18.21
2022-10-11T13:21:29.716Z,18.15
2022-10-11T13:24:18.965Z,18.19
2022-10-11T13:26:50.541Z,18.21
2022-10-11T13:29:39.725Z,18.37
2022-10-11T13:32:23.864Z,18.35
2022-10-11T13:34:58.620Z,18.35
2022-10-11T13:37:29.887Z,18.31
2022-10-11T13:39:58.562Z,18.26
2022-10-11T13:42:31.394Z,18.35
2022-10-11T13:45:00.543Z,18.43
2022-10-11T13:47:31.604Z,18.37
2022-10-11T13:50:17.562Z,18.34
2022-10-11T13:53:08.470Z,18.37
2022-10-11T13:55:59.906Z,18.31
2022-10-11T13:58:46.877Z,18.42
2022-10-11T14:01:40.734Z,18.37
2022-10-11T14:04:12.778Z,18.43
2022-10-11T14:06:50.825Z,18.58
2022-10-11T14:09:38.952Z,18.72
2022-10-11T14:12:33.568Z,18.86
2022-10-11T14:15:04.783Z,18.95
2022-10-11T14:17:45.655Z,19.04
2022-10-11T14:20:39.681Z,19.09
2022-10-11T14:23:07.846Z,19.10
2022-10-11T14:25:35.693Z,19.09
2022-10-11T14:28:05.742Z,19.09
2022-10-11T14:30:33.483Z,19.10
2022-10-11T14:33:02.665Z,19.12
2022-10-11T14:35:35.033Z,19.12
2022-10-11T14:38:02.805Z,19.11
2022-10-11T14:40:31.876Z,19.10
2022-10-11T14:42:59.480Z,19.10
2022-10-11T14:45:28.381Z,19.08
2022-10-11T14:47:56.589Z,19.08
2022-10-11T14:50:52.751Z,19.06
2022-10-11T14:53:20.287Z,19.03
2022-10-11T14:55:48.409Z,18.93
2022-10-11T14:58:17.902Z,18.88
2022-10-11T15:00:46.302Z,18.85
2022-10-11T15:03:15.471Z,18.83
2022-10-11T15:05:43.033Z,18.81
2022-10-11T15:08:14.861Z,18.79
2022-10-11T15:10:43.700Z,18.77
2022-10-11T15:13:11.289Z,18.73
2022-10-11T15:15:41.495Z,18.67
2022-10-11T15:18:17.664Z,18.64
2022-10-11T15:20:46.671Z,18.62
2022-10-11T15:23:14.509Z,18.59
2022-10-11T15:25:42.781Z,18.56
2022-10-11T15:28:28.095Z,18.53
2022-10-11T15:30:57.081Z,18.52
2022-10-11T15:33:25.375Z,18.51
2022-10-11T15:35:53.741Z,18.53
2022-10-11T15:38:25.332Z,18.50
2022-10-11T15:40:54.211Z,18.51
2022-10-11T15:43:24.932Z,18.48
2022-10-11T15:45:54.371Z,18.45
2022-10-11T15:48:26.355Z,18.42
2022-10-11T15:50:54.907Z,18.40
2022-10-11T15:53:31.068Z,18.39
2022-10-11T15:56:07.202Z,18.36
2022-10-11T15:58:39.289Z,18.37
2022-10-11T16:01:19.898Z,18.36
2022-10-11T16:03:49.884Z,18.30
2022-10-11T16:06:19.746Z,18.24
2022-10-11T16:08:48.059Z,18.21
2022-10-11T16:11:16.124Z,18.17
2022-10-11T16:13:43.636Z,18.13
2022-10-11T16:16:12.299Z,18.10
2022-10-11T16:18:40.754Z,18.05
2022-10-11T16:21:13.365Z,18.04
2022-10-11T16:23:41.111Z,18.01
2022-10-11T16:26:13.805Z,17.99
2022-10-11T16:28:42.642Z,17.98
2022-10-11T16:31:18.171Z,17.97
2022-10-11T16:33:46.419Z,17.94
2022-10-11T16:36:40.570Z,17.88
2022-10-11T16:39:18.376Z,17.83
2022-10-11T16:41:47.244Z,17.81
2022-10-11T16:44:17.891Z,17.80
2022-10-11T16:46:48.350Z,17.77
2022-10-11T16:49:22.131Z,17.77
2022-10-11T16:51:55.955Z,17.74
2022-10-11T16:54:23.777Z,17.70
2022-10-11T16:56:51.490Z,17.67
2022-10-11T16:59:20.027Z,17.63
2022-10-11T17:01:47.851Z,17.60
2022-10-11T17:04:16.089Z,17.54
2022-10-11T17:06:44.037Z,17.53
2022-10-11T17:09:12.670Z,17.51
2022-10-11T17:11:40.830Z,17.51
2022-10-11T17:14:09.255Z,17.47
2022-10-11T17:16:36.748Z,17.44
2022-10-11T17:19:05.478Z,17.41
2022-10-11T17:21:32.922Z,17.38
2022-10-11T17:24:00.713Z,17.34
2022-10-11T17:26:28.321Z,17.33
2022-10-11T17:28:59.563Z,17.33
2022-10-11T17:31:30.458Z,17.32
2022-10-11T17:34:00.952Z,17.36
2022-10-11T17:36:34.155Z,17.34
2022-10-11T17:39:07.107Z,17.33
2022-10-11T17:41:35.694Z,17.27
2022-10-11T17:44:04.389Z,17.24
2022-10-11T17:46:32.882Z,17.22
2022-10-11T17:49:05.553Z,17.19
2022-10-11T17:51:34.170Z,17.18
2022-10-11T17:54:02.407Z,17.18
2022-10-11T17:56:35.200Z,17.16
2022-10-11T17:59:06.472Z,17.17
2022-10-11T18:01:34.441Z,17.16
2022-10-11T18:04:05.953Z,17.15
2022-10-11T18:06:39.758Z,17.11
2022-10-11T18:09:07.440Z,17.10
2022-10-11T18:11:35.406Z,17.10
2022-10-11T18:14:04.568Z,17.10
2022-10-11T18:16:33.021Z,17.09
2022-10-11T18:19:04.887Z,17.05
2022-10-11T18:21:34.927Z,17.04
2022-10-11T18:24:15.066Z,17.05
2022-10-11T18:26:46.951Z,17.06
2022-10-11T18:29:14.640Z,17.06
2022-10-11T18:31:42.768Z,17.07
2022-10-11T18:34:13.018Z,17.07
2022-10-11T18:36:40.998Z,17.09
2022-10-11T18:39:13.360Z,17.08
2022-10-11T18:41:44.572Z,17.09
2022-10-11T18:44:15.206Z,17.08
2022-10-11T18:46:44.147Z,17.10
2022-10-11T18:49:13.547Z,17.10
2022-10-11T18:51:42.053Z,17.10
2022-10-11T18:54:15.342Z,17.07
2022-10-11T18:56:46.250Z,17.08
2022-10-11T18:59:14.102Z,17.06
2022-10-11T19:01:44.748Z,17.07
2022-10-11T19:04:17.963Z,17.06
2022-10-11T19:06:48.768Z,17.07
2022-10-11T19:09:22.531Z,17.07
2022-10-11T19:11:53.674Z,17.07
2022-10-11T19:14:28.471Z,17.06
2022-10-11T19:16:57.219Z,17.03
2022-10-11T19:19:29.673Z,17.02
2022-10-11T19:21:58.485Z,17.00
2022-10-11T19:24:29.270Z,16.99
2022-10-11T19:27:02.609Z,16.98
2022-10-11T19:29:31.566Z,16.97
2022-10-11T19:32:03.006Z,16.95
2022-10-11T19:34:32.718Z,16.92
2022-10-11T19:37:01.246Z,16.88
2022-10-11T19:39:30.104Z,16.84
2022-10-11T19:41:57.926Z,16.83
2022-10-11T19:44:25.548Z,16.80
2022-10-11T19:46:53.455Z,16.82
2022-10-11T19:49:25.239Z,16.82
2022-10-11T19:51:55.226Z,16.81
2022-10-11T19:54:23.916Z,16.82
2022-10-11T19:56:51.503Z,16.82
2022-10-11T19:59:19.710Z,16.82
2022-10-11T20:01:52.268Z,16.83
2022-10-11T20:04:50.981Z,16.82
2022-10-11T20:07:08.752Z,16.80
2022-10-11T20:09:36.739Z,16.81
2022-10-11T20:12:05.158Z,16.81
2022-10-11T20:14:33.023Z,16.81
2022-10-11T20:17:00.609Z,16.82
2022-10-11T20:19:31.012Z,16.83
2022-10-11T20:22:00.580Z,16.82
2022-10-11T20:24:32.809Z,16.81
2022-10-11T20:27:06.332Z,16.79
2022-10-11T20:29:35.424Z,16.80
2022-10-11T20:32:02.966Z,16.81
2022-10-11T20:34:31.153Z,16.83
2022-10-11T20:36:58.768Z,16.85
2022-10-11T20:39:26.987Z,16.86
2022-10-11T20:41:54.968Z,16.87
2022-10-11T20:44:23.125Z,16.90
2022-10-11T20:46:50.727Z,16.92
2022-10-11T20:49:19.987Z,16.95
2022-10-11T20:51:48.610Z,16.97
2022-10-11T20:54:16.907Z,16.98
2022-10-11T20:56:45.028Z,16.98
2022-10-11T20:59:12.985Z,16.98
2022-10-11T21:01:41.990Z,16.95
2022-10-11T21:04:19.068Z,16.91
2022-10-11T21:06:48.986Z,16.86
2022-10-11T21:09:17.433Z,16.79
2022-10-11T21:11:45.574Z,16.76
2022-10-11T21:14:13.497Z,16.77
2022-10-11T21:16:41.341Z,16.77
2022-10-11T21:19:15.175Z,16.77
2022-10-11T21:21:43.975Z,16.77
2022-10-11T21:24:11.546Z,16.78
2022-10-11T21:26:39.395Z,16.81
2022-10-11T21:29:08.471Z,16.89
2022-10-11T21:31:36.442Z,16.99
2022-10-11T21:34:05.291Z,17.07
2022-10-11T21:36:33.803Z,17.13
2022-10-11T21:39:01.532Z,17.17
2022-10-11T21:41:30.418Z,17.17
2022-10-11T21:43:58.606Z,17.14
2022-10-11T21:46:54.216Z,17.11
2022-10-11T21:49:18.612Z,17.05
2022-10-11T21:51:46.193Z,17.01
2022-10-11T21:54:14.735Z,16.99
2022-10-11T21:56:42.522Z,16.94
2022-10-11T21:59:12.522Z,16.91
2022-10-11T22:01:41.937Z,16.88
2022-10-11T22:04:10.915Z,16.86
2022-10-11T22:06:39.487Z,16.82
2022-10-11T22:09:08.915Z,16.80
2022-10-11T22:11:37.395Z,16.77
2022-10-11T22:14:05.846Z,16.75
2022-10-11T22:16:34.776Z,16.74
2022-10-11T22:19:03.069Z,16.71
2022-10-11T22:21:31.827Z,16.68
2022-10-11T22:24:01.084Z,16.67
2022-10-11T22:26:31.584Z,16.66
2022-10-11T22:29:00.704Z,16.63
2022-10-11T22:31:30.935Z,16.60
2022-10-11T22:34:01.174Z,16.57
2022-10-11T22:36:30.643Z,16.55
2022-10-11T22:38:58.725Z,16.54
2022-10-11T22:41:26.690Z,16.51
2022-10-11T22:43:54.347Z,16.50
2022-10-11T22:46:21.831Z,16.47
2022-10-11T22:48:49.616Z,16.42
2022-10-11T22:51:17.336Z,16.41
2022-10-11T22:53:44.929Z,16.40
2022-10-11T22:56:12.721Z,16.38
2022-10-11T22:58:40.179Z,16.36
2022-10-11T23:01:10.509Z,16.33
2022-10-11T23:03:38.683Z,16.33
2022-10-11T23:06:06.846Z,16.31
2022-10-11T23:08:34.393Z,16.30
2022-10-11T23:11:07.204Z,16.23
2022-10-11T23:13:35.547Z,16.21
2022-10-11T23:16:11.781Z,16.17
2022-10-11T23:18:39.841Z,16.14
2022-10-11T23:21:08.379Z,16.13
2022-10-11T23:23:36.020Z,16.12
2022-10-11T23:26:06.024Z,16.04
2022-10-11T23:28:34.770Z,16.01
2022-10-11T23:31:08.426Z,15.98
2022-10-11T23:33:36.434Z,15.97
2022-10-11T23:36:04.330Z,15.98
2022-10-11T23:38:31.961Z,15.99
2022-10-11T23:40:59.713Z,16.00
2022-10-11T23:43:27.227Z,16.02
2022-10-11T23:45:55.891Z,16.05
2022-10-11T23:48:23.769Z,16.04
2022-10-11T23:50:51.326Z,16.06
2022-10-11T23:53:18.886Z,16.09
2022-10-11T23:55:46.696Z,16.11
2022-10-11T23:58:14.161Z,16.12
